Time;durP1;ratioP1;P1;durP2;ratioP2;P2;SDS_P1;SDS_P2;PMS_P1;PMS_P2;Temp;Humidity;BMP_temperature;BMP_pressure;BME280_temperature;BME280_humidity;BME280_pressure;Samples;Min_cycle;Max_cycle;Signal;HPM_P1;HPM_P2
2022/04/15 00:00:09;;;;;;;5.70;3.70;;;;;;;20.18;44.89;101453.38;4894964;29;20377;-74
2022/04/15 00:02:39;;;;;;;5.00;3.30;;;;;;;20.17;45.03;101452.50;4895650;29;20056;-74
2022/04/15 00:05:34;;;;;;;4.60;3.80;;;;;;;20.18;44.88;101458.75;4895700;29;20055;-74
2022/04/15 00:07:55;;;;;;;4.60;3.72;;;;;;;20.17;44.81;101448.97;4895291;29;20060;-73
2022/04/15 00:10:23;;;;;;;5.07;3.50;;;;;;;20.16;44.75;101456.19;4895040;29;20052;-74
2022/04/15 00:12:54;;;;;;;5.97;3.70;;;;;;;20.15;44.92;101449.09;4895244;29;20044;-74
2022/04/15 00:15:22;;;;;;;6.15;3.95;;;;;;;20.16;44.86;101455.31;4895334;29;20053;-74
2022/04/15 00:17:50;;;;;;;7.43;3.65;;;;;;;20.16;44.63;101453.50;4895214;29;20048;-74
2022/04/15 00:20:18;;;;;;;4.57;3.72;;;;;;;20.16;44.79;101458.88;4895082;29;20051;-74
2022/04/15 00:22:45;;;;;;;4.65;3.83;;;;;;;20.15;44.77;101462.53;4894980;29;20044;-74
2022/04/15 00:25:13;;;;;;;4.35;3.53;;;;;;;20.15;44.67;101457.16;4894790;29;20055;-74
2022/04/15 00:27:40;;;;;;;4.60;3.65;;;;;;;20.15;44.71;101456.31;4894802;29;20045;-74
2022/04/15 00:30:09;;;;;;;5.07;3.50;;;;;;;20.14;44.56;101458.16;4894672;29;20051;-73
2022/04/15 00:32:37;;;;;;;5.28;3.42;;;;;;;20.14;44.37;101458.16;4895017;29;20378;-73
2022/04/15 00:35:06;;;;;;;6.47;3.83;;;;;;;20.13;44.54;101450.19;4894645;29;20055;-74
2022/04/15 00:37:33;;;;;;;4.70;3.70;;;;;;;20.13;44.58;101451.03;4894923;29;20056;-73
2022/04/15 00:40:04;;;;;;;4.47;3.33;;;;;;;20.14;44.38;101455.47;4895547;29;20056;-74
2022/04/15 00:42:34;;;;;;;6.07;3.20;;;;;;;20.13;44.55;101456.41;4896128;29;20393;-74
2022/04/15 00:45:02;;;;;;;6.20;3.88;;;;;;;20.13;44.50;101458.25;4894906;29;20052;-74
2022/04/15 00:47:45;;;;;;;6.65;3.40;;;;;;;20.13;44.47;101452.88;4894981;29;20059;-74
2022/04/15 00:50:12;;;;;;;6.10;3.23;;;;;;;20.11;44.33;101439.56;4894471;29;20056;-73
2022/04/15 00:52:44;;;;;;;6.07;3.20;;;;;;;20.11;44.59;101453.00;4897488;29;20063;-73
2022/04/15 00:55:12;;;;;;;5.63;3.70;;;;;;;20.11;44.14;101450.31;4898211;29;20492;-73
2022/04/15 00:57:42;;;;;;;4.22;3.35;;;;;;;20.12;44.25;101445.78;4897553;29;20055;-73
2022/04/15 01:00:12;;;;;;;4.78;3.65;;;;;;;20.11;44.40;101444.09;4897662;29;20121;-73
2022/04/15 01:02:39;;;;;;;5.75;3.63;;;;;;;20.11;44.44;101446.78;4897712;29;20041;-73
2022/04/15 01:05:10;;;;;;;4.13;3.20;;;;;;;20.11;44.20;101450.31;4898118;29;20056;-74
2022/04/15 01:07:40;;;;;;;4.97;3.55;;;;;;;20.10;44.30;101448.63;4898487;29;20049;-74
2022/04/15 01:10:12;;;;;;;6.72;3.40;;;;;;;20.10;44.01;101454.00;4897583;29;20048;-73
2022/04/15 01:12:42;;;;;;;4.43;3.17;;;;;;;20.12;44.17;101453.84;4897940;29;20452;-74
2022/04/15 01:15:13;;;;;;;4.70;3.35;;;;;;;20.10;44.24;101455.81;4897233;29;20075;-73
2022/04/15 01:17:41;;;;;;;5.32;3.55;;;;;;;20.11;44.20;101454.84;4898422;29;20048;-73
2022/04/15 01:20:11;;;;;;;5.85;3.50;;;;;;;20.10;44.04;101451.31;4897709;29;20053;-73
2022/04/15 01:22:39;;;;;;;4.68;3.25;;;;;;;20.10;44.15;101456.69;4897687;29;20048;-73
2022/04/15 01:25:07;;;;;;;4.57;3.28;;;;;;;20.09;44.03;101460.31;4898005;29;20052;-73
2022/04/15 01:27:37;;;;;;;6.47;3.10;;;;;;;20.09;43.97;101454.09;4897121;29;20063;-73
2022/04/15 01:30:07;;;;;;;4.53;3.22;;;;;;;20.09;43.93;101451.41;4897299;29;20119;-73
2022/04/15 01:32:34;;;;;;;7.10;4.00;;;;;;;20.07;44.01;101454.22;4897818;29;20055;-73
2022/04/15 01:35:02;;;;;;;6.72;3.60;;;;;;;20.08;43.88;101453.25;4897377;29;20048;-73
2022/04/15 01:37:31;;;;;;;4.07;3.25;;;;;;;20.08;43.95;101455.06;4897884;29;20499;-73
2022/04/15 01:39:58;;;;;;;5.00;3.58;;;;;;;20.07;43.98;101448.84;4897280;29;20052;-73
2022/04/15 01:42:26;;;;;;;5.15;3.38;;;;;;;20.07;44.08;101462.28;4897389;29;20489;-73
2022/04/15 01:44:53;;;;;;;5.97;3.42;;;;;;;20.08;44.01;101447.00;4897673;29;20044;-73
2022/04/15 01:47:21;;;;;;;4.30;3.30;;;;;;;20.06;43.80;101444.47;4896951;29;20052;-73
2022/04/15 01:49:48;;;;;;;4.95;3.33;;;;;;;20.07;43.85;101450.69;4896866;29;20059;-74
2022/04/15 01:52:15;;;;;;;5.10;3.35;;;;;;;20.07;43.90;101446.16;4897356;29;20392;-74
2022/04/15 01:54:43;;;;;;;5.65;3.38;;;;;;;20.06;43.87;101446.28;4896864;29;20056;-73
2022/04/15 01:57:11;;;;;;;4.05;3.33;;;;;;;20.06;43.87;101452.53;4897130;29;20075;-73
2022/04/15 01:59:40;;;;;;;4.15;3.35;;;;;;;20.06;43.81;101452.53;4896875;29;20049;-73
2022/04/15 02:02:08;;;;;;;6.13;4.22;;;;;;;20.06;43.97;101457.91;4894951;29;20044;-73
2022/04/15 02:04:36;;;;;;;5.07;3.70;;;;;;;20.06;43.89;101457.06;4896018;29;20408;-73
2022/04/15 02:07:04;;;;;;;5.95;3.78;;;;;;;20.06;43.94;101454.38;4897458;29;20053;-74
2022/04/15 02:09:32;;;;;;;4.47;3.30;;;;;;;20.05;43.98;101450.78;4896887;29;20048;-74
2022/04/15 02:11:59;;;;;;;4.97;3.13;;;;;;;20.06;43.93;101457.06;4896611;29;20405;-74
2022/04/15 02:14:27;;;;;;;6.60;3.22;;;;;;;20.04;43.90;101451.78;4896814;29;20063;-73
2022/04/15 02:16:54;;;;;;;4.20;3.35;;;;;;;20.04;43.99;101454.47;4895864;29;20055;-74
2022/04/15 02:19:24;;;;;;;6.40;3.60;;;;;;;20.04;43.86;101446.41;4896971;29;20511;-73
2022/04/15 02:21:52;;;;;;;4.20;3.10;;;;;;;20.05;43.97;101455.31;4896277;29;20044;-73
2022/04/15 02:24:19;;;;;;;4.10;3.33;;;;;;;20.03;43.78;101447.38;4897105;29;20051;-73
2022/04/15 02:26:46;;;;;;;4.85;3.63;;;;;;;20.04;43.94;101453.63;4896281;29;20055;-73
2022/04/15 02:29:14;;;;;;;4.32;3.28;;;;;;;20.04;43.83;101449.09;4896387;29;20044;-73
2022/04/15 02:31:42;;;;;;;4.13;3.15;;;;;;;20.02;43.73;101440.31;4896890;29;20041;-73
2022/04/15 02:34:10;;;;;;;6.70;3.13;;;;;;;20.03;43.79;101457.28;4897431;29;20385;-73
2022/04/15 02:36:37;;;;;;;5.13;3.60;;;;;;;20.04;43.74;101449.09;4897498;29;20049;-73
2022/04/15 02:39:10;;;;;;;5.88;3.10;;;;;;;20.03;43.81;101451.91;4897021;29;20056;-73
2022/04/15 02:41:40;;;;;;;4.53;3.25;;;;;;;20.01;43.62;101449.31;4896588;29;20048;-73
2022/04/15 02:44:08;;;;;;;11.82;3.55;;;;;;;20.02;43.74;101453.75;4896597;29;20064;-73
2022/04/15 02:46:36;;;;;;;6.03;3.20;;;;;;;20.02;43.70;101447.53;4896066;29;20051;-73
2022/04/15 02:49:04;;;;;;;6.70;2.85;;;;;;;20.02;43.51;101447.53;4896570;29;20060;-73
2022/04/15 02:51:33;;;;;;;5.28;2.97;;;;;;;20.00;43.56;101450.31;4896029;29;20072;-73
2022/04/15 02:54:01;;;;;;;4.32;3.20;;;;;;;20.01;43.48;101443.94;4894442;29;20052;-73
2022/04/15 02:56:28;;;;;;;4.05;3.35;;;;;;;20.00;43.55;101448.47;4894897;29;20067;-73
2022/04/15 02:58:56;;;;;;;5.65;2.97;;;;;;;19.99;43.56;101449.47;4894998;29;20060;-73
2022/04/15 03:01:23;;;;;;;5.65;3.25;;;;;;;20.00;43.50;101447.63;4896136;29;20380;-73
2022/04/15 03:03:51;;;;;;;6.88;3.28;;;;;;;19.98;43.39;101445.06;4895082;29;20072;-73
2022/04/15 03:06:18;;;;;;;5.05;3.63;;;;;;;19.99;43.56;101452.16;4895798;29;20056;-73
2022/04/15 03:08:45;;;;;;;3.72;2.83;;;;;;;20.00;43.43;101447.63;4895673;29;20048;-73
2022/04/15 03:11:13;;;;;;;4.72;3.25;;;;;;;19.99;43.61;101452.16;4895764;29;20049;-74
2022/04/15 03:13:40;;;;;;;4.20;3.33;;;;;;;19.99;43.28;101454.84;4896356;29;20481;-73
2022/04/15 03:16:07;;;;;;;5.72;2.80;;;;;;;19.98;43.52;101453.13;4895565;29;20053;-73
2022/04/15 03:18:35;;;;;;;6.03;3.20;;;;;;;19.98;43.40;101454.97;4896128;29;20048;-73
2022/04/15 03:21:02;;;;;;;5.97;3.35;;;;;;;19.97;43.32;101448.75;4896125;29;20392;-73
2022/04/15 03:23:30;;;;;;;6.20;3.53;;;;;;;19.97;43.36;101454.13;4895647;29;20052;-73
2022/04/15 03:25:57;;;;;;;6.25;2.97;;;;;;;19.98;43.29;101447.75;4895789;29;20051;-74
2022/04/15 03:28:24;;;;;;;11.27;3.35;;;;;;;19.99;43.29;101451.28;4895650;29;20484;-74
2022/04/15 03:30:52;;;;;;;4.55;3.25;;;;;;;19.98;43.36;101446.91;4895764;29;20056;-73
2022/04/15 03:33:19;;;;;;;5.57;3.28;;;;;;;19.98;43.28;101449.59;4896266;29;20056;-79
2022/04/15 03:35:46;;;;;;;5.57;3.28;;;;;;;19.98;43.26;101455.81;4895519;29;20049;-73
2022/04/15 03:38:14;;;;;;;5.75;2.97;;;;;;;19.99;43.25;101451.28;4895555;29;20053;-73
2022/04/15 03:40:41;;;;;;;6.50;3.92;;;;;;;19.98;43.41;101460.34;4895318;29;20044;-73
2022/04/15 03:43:09;;;;;;;4.45;2.78;;;;;;;19.98;43.40;101463.03;4895791;29;20095;-73
2022/04/15 03:45:37;;;;;;;5.88;3.00;;;;;;;19.98;43.26;101465.72;4895367;29;20052;-73
2022/04/15 03:48:04;;;;;;;7.38;3.33;;;;;;;19.97;43.54;101464.88;4895790;29;20055;-74
2022/04/15 03:50:33;;;;;;;5.32;3.30;;;;;;;19.97;43.44;101458.59;4895660;29;20075;-73
2022/04/15 03:53:00;;;;;;;6.93;3.38;;;;;;;19.96;43.30;101460.44;4895338;29;20048;-73
2022/04/15 03:55:28;;;;;;;4.20;3.03;;;;;;;19.97;43.35;101458.59;4895864;29;20159;-73
2022/04/15 03:57:55;;;;;;;6.35;3.58;;;;;;;19.96;43.41;101451.53;4895727;29;20060;-73
2022/04/15 04:00:24;;;;;;;5.82;3.33;;;;;;;19.96;43.40;101462.28;4896178;29;20056;-73
2022/04/15 04:02:53;;;;;;;5.03;3.17;;;;;;;19.95;43.32;101458.72;4896102;29;20052;-73
2022/04/15 04:05:24;;;;;;;6.63;3.50;;;;;;;19.95;43.24;101453.38;4893925;29;20056;-73
2022/04/15 04:07:51;;;;;;;4.80;3.13;;;;;;;19.95;43.25;101463.25;4895068;29;20404;-73
2022/04/15 04:10:19;;;;;;;5.38;3.40;;;;;;;19.95;43.28;101465.94;4895487;29;20116;-73
2022/04/15 04:12:48;;;;;;;4.32;2.85;;;;;;;19.95;43.29;101468.63;4895460;29;20040;-73
2022/04/15 04:15:15;;;;;;;4.40;2.80;;;;;;;19.94;43.30;101470.47;4893730;29;20057;-73
2022/04/15 04:17:43;;;;;;;3.65;2.63;;;;;;;19.95;43.13;101469.50;4894976;29;20484;-74
2022/04/15 04:20:12;;;;;;;5.47;3.42;;;;;;;19.96;43.19;101475.72;4895004;29;20051;-73
2022/04/15 04:22:40;;;;;;;6.95;3.13;;;;;;;19.95;43.08;101476.69;4894799;29;20044;-73
2022/04/15 04:25:09;;;;;;;6.13;3.60;;;;;;;19.94;42.96;101483.06;4895334;29;20064;-73
2022/04/15 04:27:39;;;;;;;6.70;4.00;;;;;;;19.93;42.89;101479.53;4897566;29;20072;-73
2022/04/15 04:30:07;;;;;;;7.38;3.30;;;;;;;19.93;43.03;101475.94;4898492;29;20052;-73
2022/04/15 04:32:35;;;;;;;6.63;3.00;;;;;;;19.93;42.93;101484.00;4897395;29;20051;-73
2022/04/15 04:35:03;;;;;;;6.05;3.70;;;;;;;19.92;42.84;101493.06;4898269;29;20040;-74
2022/04/15 04:37:31;;;;;;;4.00;2.90;;;;;;;19.92;42.93;101493.06;4896673;29;20057;-73
2022/04/15 04:39:58;;;;;;;6.55;3.33;;;;;;;19.92;42.94;101498.44;4898295;29;20436;-74
2022/04/15 04:42:26;;;;;;;6.93;3.17;;;;;;;19.91;42.71;101492.19;4897823;29;20045;-73
2022/04/15 04:44:55;;;;;;;4.88;2.80;;;;;;;19.92;42.91;101498.44;4898074;29;20049;-74
2022/04/15 04:47:24;;;;;;;8.32;3.47;;;;;;;19.91;42.80;101500.25;4898088;29;20052;-73
2022/04/15 04:49:52;;;;;;;5.10;3.00;;;;;;;19.91;42.71;101515.53;4898336;29;20376;-73
2022/04/15 04:52:20;;;;;;;5.30;3.22;;;;;;;19.89;42.75;101502.22;4898015;29;20041;-73
2022/04/15 04:54:47;;;;;;;3.60;3.03;;;;;;;19.90;42.79;101512.00;4897107;29;20044;-73
2022/04/15 04:57:15;;;;;;;6.20;3.13;;;;;;;19.90;42.94;101514.69;4898768;29;20053;-73
2022/04/15 04:59:42;;;;;;;5.30;2.72;;;;;;;19.89;42.62;101515.66;4898175;29;20053;-73
2022/04/15 05:02:12;;;;;;;3.47;2.75;;;;;;;19.89;42.62;101520.16;4898012;29;20048;-73
2022/04/15 05:04:40;;;;;;;3.75;2.90;;;;;;;19.90;42.63;101519.19;4897539;29;20120;-73
2022/04/15 05:07:08;;;;;;;6.28;3.53;;;;;;;19.90;42.81;101521.91;4897539;29;20045;-74
2022/04/15 05:09:35;;;;;;;6.03;2.90;;;;;;;19.90;42.72;101516.53;4898114;29;20059;-74
2022/04/15 05:12:03;;;;;;;5.10;2.78;;;;;;;19.89;42.55;101517.47;4881101;29;20048;-74
2022/04/15 05:14:30;;;;;;;4.63;2.78;;;;;;;19.88;42.69;101523.81;4897200;29;20079;-74
2022/04/15 05:16:57;;;;;;;3.65;2.83;;;;;;;19.88;42.74;101527.38;4897852;29;20045;-73
2022/04/15 05:19:24;;;;;;;4.78;2.80;;;;;;;19.88;42.55;101526.50;4897290;29;20052;-73
2022/04/15 05:21:53;;;;;;;6.57;3.05;;;;;;;19.88;42.58;101534.56;4897280;29;20490;-74
2022/04/15 05:24:20;;;;;;;3.85;3.00;;;;;;;19.87;42.70;101536.41;4897954;29;20051;-74
2022/04/15 05:26:47;;;;;;;5.47;3.08;;;;;;;19.87;42.56;101527.50;4897673;29;20048;-74
2022/04/15 05:29:15;;;;;;;6.05;3.50;;;;;;;19.86;42.54;101542.75;4897463;29;20075;-73
2022/04/15 05:31:42;;;;;;;3.45;2.70;;;;;;;19.87;42.63;101544.47;4897237;29;20052;-74
2022/04/15 05:34:10;;;;;;;3.90;2.60;;;;;;;19.87;42.75;101543.63;4897260;29;20056;-74
2022/04/15 05:36:37;;;;;;;4.22;2.92;;;;;;;19.86;42.63;101540.06;4897860;29;20089;-74
2022/04/15 05:39:04;;;;;;;5.00;2.78;;;;;;;19.86;42.73;101550.81;4897019;29;20052;-74
2022/04/15 05:41:32;;;;;;;4.05;2.80;;;;;;;19.87;42.55;101551.69;4897453;29;20060;-74
2022/04/15 05:43:59;;;;;;;4.68;2.95;;;;;;;19.85;42.56;101543.75;4897618;29;20477;-73
2022/04/15 05:46:31;;;;;;;6.30;3.05;;;;;;;19.85;42.92;101549.13;4897465;29;20056;-74
2022/04/15 05:48:58;;;;;;;4.80;3.15;;;;;;;19.85;42.89;101550.94;4896856;29;20464;-74
2022/04/15 05:51:25;;;;;;;5.55;2.92;;;;;;;19.85;42.80;101543.75;4897025;29;20514;-74
2022/04/15 05:53:53;;;;;;;4.82;2.75;;;;;;;19.85;42.63;101557.19;4897253;29;20381;-74
2022/04/15 05:56:20;;;;;;;7.00;3.25;;;;;;;19.85;42.58;101553.59;4897705;29;20053;-73
2022/04/15 05:58:48;;;;;;;4.43;2.72;;;;;;;19.84;42.74;101559.97;4897437;29;20055;-73
2022/04/15 06:01:16;;;;;;;4.40;3.22;;;;;;;19.84;42.81;101554.59;4897645;29;20053;-73
2022/04/15 06:03:43;;;;;;;4.97;2.97;;;;;;;19.84;42.67;101555.44;4896636;29;20047;-74
2022/04/15 06:06:11;;;;;;;6.43;3.10;;;;;;;19.85;42.73;101550.94;4897311;29;20057;-74
2022/04/15 06:08:38;;;;;;;5.47;3.17;;;;;;;19.84;42.77;101551.91;4897351;29;20049;-74
2022/04/15 06:11:05;;;;;;;5.90;3.50;;;;;;;19.85;42.86;101562.56;4896961;29;20040;-73
2022/04/15 06:13:34;;;;;;;4.65;3.28;;;;;;;19.84;42.71;101555.44;4897078;29;20044;-74
2022/04/15 06:16:01;;;;;;;5.50;3.58;;;;;;;19.84;42.92;101555.44;4896575;29;20065;-74
2022/04/15 06:18:31;;;;;;;5.57;3.03;;;;;;;19.84;42.65;101558.13;4896494;29;20055;-74
2022/04/15 06:21:00;;;;;;;4.45;3.33;;;;;;;19.84;42.83;101551.91;4896470;29;20489;-73
2022/04/15 06:23:27;;;;;;;6.13;3.10;;;;;;;19.84;42.77;101562.66;4896588;29;20052;-74
2022/04/15 06:25:55;;;;;;;5.22;3.35;;;;;;;19.84;42.97;101551.91;4897677;29;20075;-74
2022/04/15 06:28:22;;;;;;;5.78;2.92;;;;;;;19.84;42.91;101550.06;4896761;29;20041;-73
2022/04/15 06:30:50;;;;;;;4.07;2.67;;;;;;;19.84;42.87;101555.44;4896907;28;20057;-73
2022/04/15 06:33:20;;;;;;;4.95;2.72;;;;;;;19.84;42.96;101558.13;4896473;29;20055;-73
2022/04/15 06:35:48;;;;;;;3.80;2.75;;;;;;;19.84;43.10;101555.44;4896947;29;20048;-75
2022/04/15 06:38:15;;;;;;;5.38;3.03;;;;;;;19.85;43.23;101556.28;4896272;29;20056;-73
2022/04/15 06:40:42;;;;;;;6.50;3.42;;;;;;;19.86;43.28;101558.03;4896246;29;20116;-73
2022/04/15 06:43:10;;;;;;;5.35;3.42;;;;;;;19.86;43.11;101555.34;4896808;29;20048;-74
2022/04/15 06:45:37;;;;;;;6.93;3.53;;;;;;;19.86;43.02;101560.72;4896025;29;20052;-74
2022/04/15 06:48:05;;;;;;;6.88;3.20;;;;;;;19.86;43.13;101553.50;4896348;29;20049;-74
2022/04/15 06:50:33;;;;;;;6.22;3.22;;;;;;;19.87;43.27;101557.06;4895983;29;20048;-77
2022/04/15 06:53:01;;;;;;;6.10;2.78;;;;;;;19.88;43.58;101558.75;4896559;29;20071;-74
2022/04/15 06:55:29;;;;;;;6.18;3.53;;;;;;;19.89;43.51;101553.28;4896616;29;20426;-73
2022/04/15 06:57:56;;;;;;;7.43;2.97;;;;;;;19.91;43.47;101555.84;4895639;29;20048;-73
2022/04/15 07:00:23;;;;;;;5.72;3.70;;;;;;;19.91;43.54;101550.47;4895384;28;20057;-73
2022/04/15 07:02:51;;;;;;;5.68;2.90;;;;;;;19.91;43.57;101554.00;4895626;29;20068;-73
2022/04/15 07:05:19;;;;;;;5.15;3.15;;;;;;;19.92;43.41;101557.53;4895833;29;20048;-73
2022/04/15 07:07:46;;;;;;;6.53;3.40;;;;;;;19.92;43.56;101558.41;4896158;29;20048;-73
2022/04/15 07:10:13;;;;;;;4.90;3.00;;;;;;;19.93;43.43;101561.94;4895773;29;20056;-73
2022/04/15 07:12:41;;;;;;;11.00;5.47;;;;;;;19.93;43.15;101561.94;4895334;29;20055;-73
2022/04/15 07:15:09;;;;;;;10.32;6.32;;;;;;;19.91;42.96;101555.84;4893420;29;20056;-74
2022/04/15 07:17:36;;;;;;;8.95;6.10;;;;;;;19.90;43.06;101556.81;4895625;29;20060;-73
2022/04/15 07:20:04;;;;;;;7.72;6.22;;;;;;;19.88;42.88;101548.84;4895220;29;20362;-72
2022/04/15 07:22:32;;;;;;;7.00;5.25;;;;;;;19.89;42.94;101555.97;4893458;29;20083;-72
2022/04/15 07:24:59;;;;;;;11.57;7.25;;;;;;;19.88;42.44;101551.56;4894723;29;20048;-72
2022/04/15 07:27:26;;;;;;;11.15;7.05;;;;;;;19.88;42.47;101556.06;4895909;29;20048;-72
2022/04/15 07:29:54;;;;;;;8.40;6.28;;;;;;;19.89;42.67;101552.41;4895801;29;20424;-72
2022/04/15 07:32:25;;;;;;;13.00;7.25;;;;;;;19.89;42.44;101557.78;4895817;29;20053;-72
2022/04/15 07:34:53;;;;;;;6.65;5.03;;;;;;;19.90;42.85;101554.13;4895619;29;20496;-72
2022/04/15 07:37:22;;;;;;;7.57;5.72;;;;;;;19.91;42.90;101555.84;4895848;29;20052;-72
2022/04/15 07:39:49;;;;;;;5.95;5.20;;;;;;;19.91;42.98;101548.63;4895372;29;20052;-72
2022/04/15 07:42:17;;;;;;;8.27;5.80;;;;;;;19.94;42.74;101543.03;4895647;29;20131;-72
2022/04/15 07:44:45;;;;;;;6.30;4.18;;;;;;;19.96;43.52;101548.28;4895531;29;20056;-72
2022/04/15 07:47:12;;;;;;;6.35;3.72;;;;;;;19.97;43.59;101542.81;4896389;29;20064;-72
2022/04/15 07:49:39;;;;;;;6.75;3.78;;;;;;;19.99;43.63;101542.66;4896398;29;20052;-72
2022/04/15 07:52:08;;;;;;;8.27;4.40;;;;;;;20.01;43.42;101546.06;4896695;29;20049;-69
2022/04/15 07:54:35;;;;;;;6.07;4.60;;;;;;;20.05;43.11;101547.56;4895704;29;20045;-71
2022/04/15 07:57:03;;;;;;;7.68;5.43;;;;;;;20.07;43.03;101551.00;4896165;29;20049;-72
2022/04/15 07:59:30;;;;;;;8.07;5.70;;;;;;;20.07;42.83;101542.94;4896185;29;20053;-72
2022/04/15 08:02:02;;;;;;;11.13;5.45;;;;;;;20.10;42.45;101544.53;4897255;29;20049;-72
2022/04/15 08:04:34;;;;;;;7.15;4.38;;;;;;;20.11;43.10;101547.09;4882715;29;20524;-70
2022/04/15 08:07:01;;;;;;;6.13;4.47;;;;;;;20.12;43.14;101548.78;4899606;29;20476;-72
2022/04/15 08:09:29;;;;;;;5.00;3.97;;;;;;;20.13;43.06;101553.19;4899491;29;20103;-72
2022/04/15 08:11:56;;;;;;;10.38;4.50;;;;;;;20.15;43.04;101553.94;4898494;29;20055;-72
2022/04/15 08:14:24;;;;;;;7.72;4.00;;;;;;;20.16;43.07;101544.03;4898459;29;20531;-72
2022/04/15 08:16:51;;;;;;;6.93;4.32;;;;;;;20.17;43.12;101545.75;4898992;29;20048;-72
2022/04/15 08:19:19;;;;;;;6.80;4.10;;;;;;;20.17;43.17;101538.53;4898716;29;20465;-72
2022/04/15 08:21:47;;;;;;;8.80;3.85;;;;;;;20.19;43.06;101543.81;4899166;29;20048;-72
2022/04/15 08:24:14;;;;;;;6.45;4.03;;;;;;;20.19;43.03;101536.59;4899408;29;20047;-73
2022/04/15 08:26:44;;;;;;;7.78;3.72;;;;;;;20.20;43.19;101535.59;4899339;29;20380;-72
2022/04/15 08:29:11;;;;;;;6.57;3.92;;;;;;;20.21;43.22;101544.53;4898546;29;20045;-72
2022/04/15 08:31:39;;;;;;;8.60;4.05;;;;;;;20.22;43.10;101533.66;4898036;29;20110;-72
2022/04/15 08:34:06;;;;;;;7.32;4.00;;;;;;;20.22;43.10;101535.50;4898404;29;20068;-72
2022/04/15 08:36:34;;;;;;;4.55;3.33;;;;;;;20.22;43.00;101533.66;4899622;29;20484;-72
2022/04/15 08:39:02;;;;;;;6.85;3.92;;;;;;;20.23;43.36;101532.69;4897690;29;20055;-74
2022/04/15 08:41:35;;;;;;;7.18;3.30;;;;;;;20.23;43.26;101529.16;4897985;29;20144;-72
2022/04/15 08:44:05;;;;;;;5.82;4.03;;;;;;;20.24;43.41;101534.38;4898310;29;20045;-72
2022/04/15 08:46:33;;;;;;;5.15;3.13;;;;;;;20.23;43.24;101530.00;4898690;29;20397;-72
2022/04/15 08:49:01;;;;;;;5.55;4.05;;;;;;;20.25;43.41;101520.00;4898656;29;20097;-72
2022/04/15 08:51:29;;;;;;;8.35;3.55;;;;;;;20.25;43.28;101522.69;4898382;29;20060;-72
2022/04/15 08:53:56;;;;;;;4.72;3.35;;;;;;;20.27;43.41;101524.38;4898594;29;20055;-72
2022/04/15 08:56:24;;;;;;;5.60;3.53;;;;;;;20.26;43.43;101526.22;4898007;29;20057;-72
2022/04/15 08:58:51;;;;;;;4.65;2.95;;;;;;;20.28;43.36;101526.09;4898376;29;20461;-72
2022/04/15 09:01:18;;;;;;;4.90;3.38;;;;;;;20.29;43.51;101519.72;4898269;29;20097;-72
2022/04/15 09:03:46;;;;;;;5.28;3.42;;;;;;;20.29;43.30;101527.78;4897984;29;20047;-72
2022/04/15 09:06:15;;;;;;;5.93;3.60;;;;;;;20.29;43.46;101522.41;4898105;29;20040;-72
2022/04/15 09:09:18;;;;;;;6.15;2.90;;;;;;;20.31;43.42;101525.84;4897963;29;20049;-72
2022/04/15 09:11:48;;;;;;;3.97;2.60;;;;;;;20.31;43.44;101521.31;4975112;28;20058;-72
2022/04/15 09:14:16;;;;;;;5.20;2.90;;;;;;;20.32;43.46;101527.56;4975231;28;20059;-73
2022/04/15 09:16:45;;;;;;;5.80;3.47;;;;;;;20.31;43.31;101518.63;4975494;28;20059;-72
2022/04/15 09:19:14;;;;;;;3.63;2.70;;;;;;;20.31;43.37;101515.09;4975351;28;20066;-77
2022/04/15 09:21:49;;;;;;;6.10;3.22;;;;;;;20.30;43.10;101508.88;4975718;28;20533;-73
2022/04/15 09:24:17;;;;;;;5.78;3.72;;;;;;;20.31;43.31;101513.25;4974885;28;20058;-73
2022/04/15 09:26:50;;;;;;;5.90;3.22;;;;;;;20.32;43.20;101516.81;4973473;28;20062;-72
2022/04/15 09:29:21;;;;;;;6.60;3.90;;;;;;;20.32;43.00;101506.06;4974747;28;20051;-72
2022/04/15 09:31:49;;;;;;;8.93;4.30;;;;;;;20.31;42.39;101507.03;4975379;28;20047;-72
2022/04/15 09:34:16;;;;;;;5.72;3.95;;;;;;;20.31;42.56;101507.88;4974131;28;20046;-72
2022/04/15 09:36:47;;;;;;;5.22;4.10;;;;;;;20.33;42.27;101505.91;4975521;28;20055;-72
2022/04/15 09:39:14;;;;;;;8.63;4.10;;;;;;;20.33;42.60;101502.38;4974770;28;20442;-72
2022/04/15 09:41:56;;;;;;;4.95;3.20;;;;;;;20.32;42.70;101500.66;4974331;28;20062;-73
2022/04/15 09:44:31;;;;;;;6.82;3.70;;;;;;;20.32;42.50;101501.53;4975816;28;20054;-72
2022/04/15 09:47:05;;;;;;;8.60;3.42;;;;;;;20.33;42.57;101489.78;4882843;28;20072;-72
2022/04/15 09:49:34;;;;;;;4.93;3.55;;;;;;;20.33;42.50;101483.56;4878243;29;20053;-72
2022/04/15 09:52:03;;;;;;;7.30;3.75;;;;;;;20.33;42.53;101492.47;4878103;29;20068;-72
2022/04/15 09:54:34;;;;;;;6.97;4.07;;;;;;;20.32;42.48;101485.38;4878039;29;20053;-73
2022/04/15 09:57:03;;;;;;;8.63;4.75;;;;;;;20.33;42.02;101483.56;4878276;29;20053;-72
2022/04/15 09:59:31;;;;;;;6.38;4.53;;;;;;;20.32;42.17;101485.38;4878754;29;20049;-72
2022/04/15 10:02:05;;;;;;;7.40;4.20;;;;;;;20.32;42.10;101480.00;4878427;29;20497;-72
2022/04/15 10:04:34;;;;;;;5.30;3.45;;;;;;;20.34;42.32;101474.53;4878137;29;20061;-72
2022/04/15 10:07:06;;;;;;;5.13;3.47;;;;;;;20.33;42.03;101475.47;4878061;29;20053;-73
2022/04/15 10:09:43;;;;;;;7.43;3.93;;;;;;;20.33;42.45;101470.09;4878250;29;20053;-72
2022/04/15 10:12:11;;;;;;;4.90;3.60;;;;;;;20.34;42.25;101474.53;4892526;29;20041;-72
2022/04/15 10:14:38;;;;;;;6.13;3.65;;;;;;;20.33;41.99;101464.72;4883303;29;20049;-72
2022/04/15 10:17:07;;;;;;;6.25;3.58;;;;;;;20.32;41.75;101463.88;4896887;29;20404;-72
2022/04/15 10:19:37;;;;;;;5.53;3.97;;;;;;;20.32;41.89;101466.56;4896600;29;20079;-72
2022/04/15 10:22:05;;;;;;;4.50;3.17;;;;;;;20.32;41.72;101463.03;4896716;29;20061;-72
2022/04/15 10:24:33;;;;;;;5.82;4.20;;;;;;;20.31;41.34;101464.88;4895268;29;20040;-72
2022/04/15 10:27:00;;;;;;;6.53;3.60;;;;;;;20.33;41.66;101462.03;4896093;29;20048;-73
2022/04/15 10:29:28;;;;;;;4.63;3.15;;;;;;;20.34;41.36;101461.09;4896385;29;20053;-73
2022/04/15 10:31:56;;;;;;;5.13;3.38;;;;;;;20.33;41.45;101468.25;4896363;29;20496;-73
2022/04/15 10:34:23;;;;;;;5.15;3.40;;;;;;;20.33;41.38;101465.56;4896666;29;20090;-73
2022/04/15 10:36:53;;;;;;;3.38;2.78;;;;;;;20.33;41.48;101460.19;4896345;29;20412;-73
2022/04/15 10:39:27;;;;;;;5.60;2.92;;;;;;;20.33;41.38;101452.13;4895168;29;20072;-73
2022/04/15 10:42:02;;;;;;;4.50;2.72;;;;;;;20.34;41.32;101453.88;4896520;29;20075;-73
2022/04/15 10:44:36;;;;;;;4.70;2.83;;;;;;;20.34;41.42;101456.56;4896423;29;20499;-73
2022/04/15 10:47:10;;;;;;;5.05;3.00;;;;;;;20.34;41.22;101450.34;4896107;29;20053;-73
2022/04/15 10:49:52;;;;;;;5.03;2.90;;;;;;;20.34;41.10;101447.63;4896497;29;20052;-72
2022/04/15 10:52:25;;;;;;;3.67;2.88;;;;;;;20.34;40.83;101450.34;4895970;29;20049;-72
2022/04/15 10:55:12;;;;;;;5.30;3.03;;;;;;;20.33;40.62;101436.00;4878374;29;20049;-72
2022/04/15 10:57:41;;;;;;;5.63;3.40;;;;;;;20.35;40.51;101441.28;4894890;29;20049;-72
2022/04/15 11:03:21;;;;;;;4.72;3.35;;;;;;;20.35;40.57;101431.38;4895953;29;20416;-73
2022/04/15 11:05:52;;;;;;;5.03;3.38;;;;;;;20.36;40.44;101435.75;4896033;29;20052;-73
2022/04/15 11:08:22;;;;;;;3.45;2.63;;;;;;;20.36;40.47;101432.22;4895833;29;20045;-73
2022/04/15 11:10:50;;;;;;;3.90;2.50;;;;;;;20.36;40.30;101426.84;4895756;29;20433;-73
2022/04/15 11:13:31;;;;;;;3.88;2.72;;;;;;;20.37;40.27;101431.22;4895808;29;20052;-72
2022/04/15 11:16:14;;;;;;;3.17;2.67;;;;;;;20.37;40.10;101418.63;4895624;29;20045;-73
2022/04/15 11:18:58;;;;;;;4.03;3.23;;;;;;;20.35;39.96;101417.06;4880042;29;20417;-73
2022/04/15 11:21:32;;;;;;;4.22;3.10;;;;;;;20.35;40.08;101417.94;4896213;29;20071;-73
2022/04/15 11:24:00;;;;;;;3.53;2.70;;;;;;;20.36;39.80;101421.47;4895841;29;20059;-73
2022/04/15 11:26:29;;;;;;;3.88;3.15;;;;;;;20.35;38.87;101420.63;4895612;29;20052;-73
2022/04/15 11:28:59;;;;;;;4.00;2.80;;;;;;;20.36;39.94;101413.41;4895309;29;20048;-73
2022/04/15 11:31:31;;;;;;;5.43;2.88;;;;;;;20.35;39.65;101417.94;4895387;29;20057;-73
2022/04/15 11:34:10;;;;;;;4.53;2.88;;;;;;;20.36;39.69;101411.56;4895717;29;20385;-73